Time;durP1;ratioP1;P1;durP2;ratioP2;P2;SDS_P1;SDS_P2;PMS_P1;PMS_P2;Temp;Humidity;BMP_temperature;BMP_pressure;BME280_temperature;BME280_humidity;BME280_pressure;Samples;Min_cycle;Max_cycle;Signal;HPM_P1;HPM_P2
2022/06/25 00:00:31;;;;;;;59.70;3.90;;;;;;;;;;5054857;28;20974;-86
2022/06/25 00:02:59;;;;;;;61.03;4.00;;;;;;;;;;5054681;28;20452;-85
2022/06/25 00:05:32;;;;;;;59.80;4.00;;;;;;;;;;5054704;28;20845;-85
2022/06/25 00:07:59;;;;;;;59.70;3.60;;;;;;;;;;5054544;28;20462;-86
2022/06/25 00:10:27;;;;;;;60.03;4.40;;;;;;;;;;5054317;28;20518;-86
2022/06/25 00:12:53;;;;;;;59.77;3.60;;;;;;;;;;5054330;28;20437;-86
2022/06/25 00:15:21;;;;;;;59.50;3.93;;;;;;;;;;5053475;28;20436;-86
2022/06/25 00:17:48;;;;;;;60.20;4.13;;;;;;;;;;5054102;28;20487;-86
2022/06/25 00:20:15;;;;;;;59.77;3.97;;;;;;;;;;5054438;28;20490;-85
2022/06/25 00:22:44;;;;;;;60.13;3.50;;;;;;;;;;5054877;28;20847;-86
2022/06/25 00:25:11;;;;;;;59.93;3.83;;;;;;;;;;5054340;28;20439;-85
2022/06/25 00:27:39;;;;;;;58.87;3.30;;;;;;;;;;5054430;28;20838;-86
2022/06/25 00:30:06;;;;;;;59.70;4.07;;;;;;;;;;5053553;28;20451;-86
2022/06/25 00:32:34;;;;;;;60.23;3.77;;;;;;;;;;5054550;28;20463;-85
2022/06/25 00:35:01;;;;;;;59.80;3.80;;;;;;;;;;5054773;28;20447;-86
2022/06/25 00:37:28;;;;;;;60.73;3.40;;;;;;;;;;5053953;28;20817;-85
2022/06/25 00:39:57;;;;;;;59.10;3.50;;;;;;;;;;5060138;28;20448;-86
2022/06/25 00:42:24;;;;;;;59.27;3.70;;;;;;;;;;5056238;28;20501;-85
2022/06/25 00:44:53;;;;;;;59.20;3.40;;;;;;;;;;5054003;28;20448;-86
2022/06/25 00:47:21;;;;;;;60.13;4.07;;;;;;;;;;5052806;28;20452;-86
2022/06/25 00:49:48;;;;;;;59.67;3.60;;;;;;;;;;5053859;28;20781;-86
2022/06/25 00:52:16;;;;;;;58.67;3.13;;;;;;;;;;5054256;28;20452;-85
2022/06/25 00:54:46;;;;;;;59.50;3.60;;;;;;;;;;5053752;28;20449;-85
2022/06/25 00:57:18;;;;;;;66.50;3.53;;;;;;;;;;5053501;28;20446;-86
2022/06/25 00:59:45;;;;;;;59.40;3.40;;;;;;;;;;5053927;28;20463;-86
2022/06/25 01:02:12;;;;;;;67.57;3.87;;;;;;;;;;5053726;28;20835;-85
2022/06/25 01:04:41;;;;;;;61.10;3.90;;;;;;;;;;5053623;28;20490;-86
2022/06/25 01:07:09;;;;;;;61.30;3.53;;;;;;;;;;5053626;28;20464;-86
2022/06/25 01:09:36;;;;;;;59.70;3.67;;;;;;;;;;5053570;28;20879;-85
2022/06/25 01:12:04;;;;;;;59.83;3.70;;;;;;;;;;5053521;28;20559;-85
2022/06/25 01:14:32;;;;;;;59.10;3.37;;;;;;;;;;5053467;28;20857;-85
2022/06/25 01:17:00;;;;;;;59.37;3.73;;;;;;;;;;5053585;28;21117;-86
2022/06/25 01:19:29;;;;;;;59.40;3.60;;;;;;;;;;5051855;28;20482;-85
2022/06/25 01:22:01;;;;;;;59.73;3.77;;;;;;;;;;5053460;28;20467;-86
2022/06/25 01:24:28;;;;;;;59.17;3.27;;;;;;;;;;5053152;28;20471;-86
2022/06/25 01:26:55;;;;;;;58.97;3.13;;;;;;;;;;5053124;28;20490;-86
2022/06/25 01:29:23;;;;;;;59.10;3.47;;;;;;;;;;5053250;28;20435;-85
2022/06/25 01:31:50;;;;;;;59.10;3.43;;;;;;;;;;5053182;28;20463;-86
2022/06/25 01:34:17;;;;;;;59.30;3.47;;;;;;;;;;5053308;28;21044;-86
2022/06/25 01:36:44;;;;;;;59.07;3.80;;;;;;;;;;5053095;28;20857;-86
2022/06/25 01:39:15;;;;;;;59.17;3.50;;;;;;;;;;5052862;28;20486;-86
2022/06/25 01:41:42;;;;;;;64.60;3.83;;;;;;;;;;5052984;28;21042;-86
2022/06/25 01:44:10;;;;;;;59.53;4.17;;;;;;;;;;5052937;28;20942;-86
2022/06/25 01:46:37;;;;;;;59.73;3.67;;;;;;;;;;5052865;28;20853;-85
2022/06/25 01:49:04;;;;;;;62.07;4.17;;;;;;;;;;5053153;28;20894;-86
2022/06/25 01:51:32;;;;;;;61.50;3.90;;;;;;;;;;5052246;28;20814;-87
2022/06/25 01:53:59;;;;;;;59.30;3.53;;;;;;;;;;5052388;28;20482;-87
2022/06/25 01:56:27;;;;;;;60.60;4.17;;;;;;;;;;5052808;28;21319;-87
2022/06/25 01:58:55;;;;;;;62.50;4.13;;;;;;;;;;5052985;28;20482;-87
2022/06/25 02:01:22;;;;;;;60.13;4.67;;;;;;;;;;5052434;28;20472;-87
2022/06/25 02:03:49;;;;;;;59.63;3.93;;;;;;;;;;5052655;28;20793;-87
2022/06/25 02:06:17;;;;;;;58.97;3.10;;;;;;;;;;5053134;28;20489;-87
2022/06/25 02:08:44;;;;;;;59.20;3.40;;;;;;;;;;5052909;28;20455;-87
2022/06/25 02:11:12;;;;;;;59.43;3.53;;;;;;;;;;5052798;28;20466;-87
2022/06/25 02:13:40;;;;;;;61.00;3.43;;;;;;;;;;5053110;28;20531;-87
2022/06/25 02:16:08;;;;;;;60.07;4.00;;;;;;;;;;5052711;28;20806;-87
2022/06/25 02:18:35;;;;;;;59.30;3.50;;;;;;;;;;5052756;28;20487;-87
2022/06/25 02:21:02;;;;;;;58.77;3.30;;;;;;;;;;5052468;28;20463;-87
2022/06/25 02:23:30;;;;;;;59.57;3.53;;;;;;;;;;5052392;28;20442;-87
2022/06/25 02:25:57;;;;;;;61.17;5.23;;;;;;;;;;5052810;28;20455;-87
2022/06/25 02:28:24;;;;;;;59.10;3.17;;;;;;;;;;5052693;28;20440;-87
2022/06/25 02:30:53;;;;;;;59.43;3.50;;;;;;;;;;5052508;28;20981;-87
2022/06/25 02:33:20;;;;;;;59.50;3.87;;;;;;;;;;5052457;28;20439;-88
2022/06/25 02:35:47;;;;;;;60.17;4.37;;;;;;;;;;5052575;28;20961;-88
2022/06/25 02:38:15;;;;;;;58.97;3.77;;;;;;;;;;5052333;28;20970;-87
2022/06/25 02:40:42;;;;;;;61.00;4.43;;;;;;;;;;5052395;28;20463;-88
2022/06/25 02:43:10;;;;;;;62.60;3.40;;;;;;;;;;5052692;28;20489;-87
2022/06/25 02:45:37;;;;;;;59.20;3.33;;;;;;;;;;5052768;28;20447;-87
2022/06/25 02:48:06;;;;;;;59.03;3.37;;;;;;;;;;5052671;28;20508;-87
2022/06/25 02:50:33;;;;;;;59.63;3.80;;;;;;;;;;5052922;28;20471;-87
2022/06/25 02:53:01;;;;;;;59.33;3.40;;;;;;;;;;5053522;28;20500;-88
2022/06/25 03:00:57;;;;;;;59.03;3.37;;;;;;;;;;5079861;28;20459;-89
2022/06/25 03:03:26;;;;;;;59.37;3.87;;;;;;;;;;5070686;28;20477;-87
2022/06/25 03:05:53;;;;;;;60.37;3.50;;;;;;;;;;5056744;28;20440;-86
2022/06/25 03:08:21;;;;;;;59.80;3.50;;;;;;;;;;5056003;28;20459;-87
2022/06/25 03:10:48;;;;;;;59.23;3.70;;;;;;;;;;5056032;28;20544;-86
2022/06/25 03:13:15;;;;;;;59.60;3.93;;;;;;;;;;5055691;28;20856;-87
2022/06/25 03:15:42;;;;;;;59.27;3.40;;;;;;;;;;5055718;28;20864;-87
2022/06/25 03:18:10;;;;;;;59.70;3.73;;;;;;;;;;5055367;28;20450;-86
2022/06/25 03:20:38;;;;;;;60.60;3.87;;;;;;;;;;5055552;28;20477;-87
2022/06/25 03:23:06;;;;;;;59.70;3.80;;;;;;;;;;5055468;28;20812;-86
2022/06/25 03:25:33;;;;;;;62.40;4.20;;;;;;;;;;5055480;28;20435;-87
2022/06/25 03:28:00;;;;;;;59.40;3.37;;;;;;;;;;5052490;28;20451;-87
2022/06/25 03:30:28;;;;;;;59.47;3.60;;;;;;;;;;5074186;28;20515;-87
2022/06/25 03:32:55;;;;;;;62.23;3.90;;;;;;;;;;5075297;28;20956;-87
2022/06/25 03:35:22;;;;;;;60.63;3.90;;;;;;;;;;5075386;28;20448;-86
2022/06/25 03:37:51;;;;;;;60.77;3.90;;;;;;;;;;5074892;28;20864;-87
2022/06/25 03:40:18;;;;;;;59.53;3.87;;;;;;;;;;5074837;28;20488;-86
2022/06/25 03:42:45;;;;;;;59.67;3.80;;;;;;;;;;5075227;28;20442;-87
2022/06/25 03:45:13;;;;;;;60.30;3.97;;;;;;;;;;5075080;28;20454;-86
2022/06/25 03:47:40;;;;;;;60.70;4.23;;;;;;;;;;5074828;28;20443;-86
2022/06/25 03:50:08;;;;;;;59.57;3.60;;;;;;;;;;5075441;28;20447;-87
2022/06/25 03:52:35;;;;;;;59.30;3.43;;;;;;;;;;5074922;28;20442;-86
2022/06/25 03:55:04;;;;;;;61.30;3.60;;;;;;;;;;5074958;28;20952;-87
2022/06/25 03:57:32;;;;;;;59.30;3.73;;;;;;;;;;5074835;28;20495;-87
2022/06/25 03:59:59;;;;;;;59.30;3.70;;;;;;;;;;5074735;28;21006;-86
2022/06/25 04:02:26;;;;;;;60.13;3.83;;;;;;;;;;5069758;28;20523;-86
2022/06/25 04:04:53;;;;;;;59.30;3.60;;;;;;;;;;5073257;28;20495;-86
2022/06/25 04:07:21;;;;;;;59.40;3.50;;;;;;;;;;5074629;28;20449;-86
2022/06/25 04:09:48;;;;;;;59.70;3.50;;;;;;;;;;5074781;28;20450;-87
2022/06/25 04:12:17;;;;;;;59.23;3.47;;;;;;;;;;5074140;28;20513;-86
2022/06/25 04:14:44;;;;;;;60.13;4.00;;;;;;;;;;5074410;28;20431;-86
2022/06/25 04:17:11;;;;;;;67.10;3.97;;;;;;;;;;5074320;28;20520;-86
2022/06/25 04:19:41;;;;;;;63.57;4.00;;;;;;;;;;5074407;28;20951;-86
2022/06/25 04:22:08;;;;;;;60.70;4.03;;;;;;;;;;5074233;28;20458;-87
2022/06/25 04:24:36;;;;;;;59.17;3.80;;;;;;;;;;5074259;28;20434;-86
2022/06/25 04:27:03;;;;;;;59.23;3.70;;;;;;;;;;5074282;28;20442;-86
2022/06/25 04:29:31;;;;;;;59.07;3.57;;;;;;;;;;5074156;28;20454;-86
2022/06/25 04:31:58;;;;;;;60.90;3.80;;;;;;;;;;5074003;28;20459;-86
2022/06/25 04:34:25;;;;;;;59.67;3.80;;;;;;;;;;5054954;28;20492;-86
2022/06/25 04:36:53;;;;;;;60.37;3.70;;;;;;;;;;5054003;28;20782;-86
2022/06/25 04:39:20;;;;;;;58.97;3.27;;;;;;;;;;5053384;28;20483;-87
2022/06/25 04:41:47;;;;;;;59.00;3.53;;;;;;;;;;5053777;28;20513;-86
2022/06/25 04:44:16;;;;;;;59.77;4.00;;;;;;;;;;5053894;28;20448;-86
2022/06/25 04:46:45;;;;;;;59.40;3.93;;;;;;;;;;5054146;28;20448;-86
2022/06/25 04:49:12;;;;;;;59.37;3.83;;;;;;;;;;5053421;28;20447;-86
2022/06/25 04:51:39;;;;;;;59.10;3.33;;;;;;;;;;5053619;28;20526;-86
2022/06/25 04:54:07;;;;;;;58.37;3.23;;;;;;;;;;5053482;28;20436;-86
2022/06/25 04:56:36;;;;;;;58.67;3.30;;;;;;;;;;5053850;28;20442;-86
2022/06/25 04:59:03;;;;;;;59.50;3.60;;;;;;;;;;5053513;28;20447;-87
2022/06/25 05:01:30;;;;;;;60.00;3.90;;;;;;;;;;5053461;28;21011;-86
2022/06/25 05:03:59;;;;;;;59.67;3.67;;;;;;;;;;5053444;28;20508;-87
2022/06/25 05:06:26;;;;;;;58.87;3.00;;;;;;;;;;5051714;28;20497;-86
2022/06/25 05:08:54;;;;;;;60.27;3.67;;;;;;;;;;5053391;28;20463;-87
2022/06/25 05:11:21;;;;;;;58.80;3.20;;;;;;;;;;5053178;28;20460;-86
2022/06/25 05:13:50;;;;;;;61.27;3.50;;;;;;;;;;5053431;28;20525;-86
2022/06/25 05:16:17;;;;;;;59.27;3.60;;;;;;;;;;5053147;28;20972;-87
2022/06/25 05:18:46;;;;;;;58.80;3.23;;;;;;;;;;5053316;28;20440;-87
2022/06/25 05:21:14;;;;;;;59.50;3.50;;;;;;;;;;5058604;28;20479;-87
2022/06/25 05:23:42;;;;;;;59.10;3.47;;;;;;;;;;5060889;28;20850;-87
2022/06/25 05:26:09;;;;;;;60.77;3.67;;;;;;;;;;5053692;28;20432;-86
2022/06/25 05:28:36;;;;;;;58.97;3.30;;;;;;;;;;5053942;28;20483;-87
2022/06/25 05:31:03;;;;;;;59.50;3.33;;;;;;;;;;5054942;28;20475;-87
2022/06/25 05:33:31;;;;;;;59.10;3.07;;;;;;;;;;5053955;28;20447;-87
2022/06/25 05:35:58;;;;;;;59.30;3.27;;;;;;;;;;5054255;28;20864;-88
2022/06/25 05:38:27;;;;;;;59.10;3.37;;;;;;;;;;5052325;28;20467;-87
2022/06/25 05:40:55;;;;;;;58.57;2.90;;;;;;;;;;5054223;28;20491;-87
2022/06/25 05:43:23;;;;;;;59.17;3.50;;;;;;;;;;5054987;28;20887;-87
2022/06/25 05:45:50;;;;;;;58.87;3.20;;;;;;;;;;5053866;28;20999;-88
2022/06/25 05:48:17;;;;;;;59.90;3.40;;;;;;;;;;5053142;28;20468;-87
2022/06/25 05:50:44;;;;;;;58.77;3.23;;;;;;;;;;5053232;28;20880;-87
2022/06/25 05:53:12;;;;;;;70.00;3.63;;;;;;;;;;5052848;28;20440;-87
2022/06/25 05:55:40;;;;;;;58.77;3.17;;;;;;;;;;5052643;28;20929;-87
2022/06/25 05:58:08;;;;;;;58.47;2.97;;;;;;;;;;5053046;28;20483;-89
2022/06/25 06:00:35;;;;;;;59.20;3.47;;;;;;;;;;5052658;28;20491;-87
2022/06/25 06:03:02;;;;;;;58.47;2.90;;;;;;;;;;5052542;28;20440;-87
2022/06/25 06:05:29;;;;;;;58.97;3.10;;;;;;;;;;5052542;28;20452;-86
2022/06/25 06:07:57;;;;;;;58.77;3.03;;;;;;;;;;5052554;28;20513;-85
2022/06/25 06:10:24;;;;;;;59.60;3.60;;;;;;;;;;5050928;28;20464;-85
2022/06/25 06:12:53;;;;;;;58.70;2.90;;;;;;;;;;5052225;28;20486;-85
2022/06/25 06:15:20;;;;;;;59.20;3.17;;;;;;;;;;5052317;28;20445;-85
2022/06/25 06:17:47;;;;;;;58.97;3.17;;;;;;;;;;5052099;28;21000;-86
2022/06/25 06:20:15;;;;;;;59.00;3.23;;;;;;;;;;5051975;28;20487;-88
2022/06/25 06:22:42;;;;;;;58.70;3.13;;;;;;;;;;5052122;28;20436;-85
2022/06/25 06:25:09;;;;;;;59.57;3.00;;;;;;;;;;5051969;28;20522;-85
2022/06/25 06:27:37;;;;;;;59.03;3.53;;;;;;;;;;5051941;28;20436;-85
2022/06/25 06:30:08;;;;;;;59.30;3.50;;;;;;;;;;5056009;28;20436;-84
2022/06/25 06:32:36;;;;;;;59.10;3.33;;;;;;;;;;5056029;28;20534;-85
2022/06/25 06:35:03;;;;;;;58.67;3.00;;;;;;;;;;5056212;28;20444;-86
2022/06/25 06:37:30;;;;;;;58.60;2.73;;;;;;;;;;5055841;28;20510;-86
2022/06/25 06:39:57;;;;;;;58.80;2.83;;;;;;;;;;5055976;28;20465;-87
2022/06/25 06:42:25;;;;;;;59.30;3.40;;;;;;;;;;5054838;28;20437;-86
2022/06/25 06:44:52;;;;;;;59.07;3.13;;;;;;;;;;5056074;28;20531;-88
2022/06/25 06:47:21;;;;;;;59.30;3.50;;;;;;;;;;5056063;28;20445;-84
2022/06/25 06:49:48;;;;;;;59.00;3.00;;;;;;;;;;5055953;28;20441;-86
2022/06/25 06:52:15;;;;;;;58.97;2.80;;;;;;;;;;5055776;28;20456;-86
2022/06/25 06:54:43;;;;;;;59.40;3.30;;;;;;;;;;5056007;28;20436;-87
2022/06/25 06:57:10;;;;;;;59.10;3.33;;;;;;;;;;5055805;28;20936;-87
2022/06/25 06:59:38;;;;;;;60.13;3.20;;;;;;;;;;5055799;28;20440;-87
2022/06/25 07:02:06;;;;;;;58.73;3.00;;;;;;;;;;5055835;28;20491;-87
2022/06/25 07:04:35;;;;;;;59.07;3.37;;;;;;;;;;5056154;28;20440;-87
2022/06/25 07:07:02;;;;;;;58.60;3.40;;;;;;;;;;5055920;28;20876;-86
2022/06/25 07:09:29;;;;;;;58.90;3.27;;;;;;;;;;5055539;28;20444;-86
2022/06/25 07:11:57;;;;;;;58.77;3.20;;;;;;;;;;5055731;28;20465;-85
2022/06/25 07:14:24;;;;;;;60.00;3.67;;;;;;;;;;5054581;28;20448;-86
2022/06/25 07:16:51;;;;;;;59.23;3.20;;;;;;;;;;5055100;28;20448;-86
2022/06/25 07:19:18;;;;;;;59.60;3.13;;;;;;;;;;5055315;28;20869;-86
2022/06/25 07:21:47;;;;;;;58.77;3.00;;;;;;;;;;5055204;28;20498;-88
2022/06/25 07:24:14;;;;;;;58.90;2.80;;;;;;;;;;5055558;28;20464;-88
2022/06/25 07:26:42;;;;;;;61.47;3.10;;;;;;;;;;5055615;28;20450;-87
2022/06/25 07:29:09;;;;;;;58.67;3.07;;;;;;;;;;5055263;28;20458;-90
2022/06/25 07:31:36;;;;;;;58.77;3.07;;;;;;;;;;5055555;28;20462;-89
2022/06/25 07:34:04;;;;;;;59.97;3.53;;;;;;;;;;5058328;28;20460;-88
2022/06/25 07:36:31;;;;;;;58.87;3.10;;;;;;;;;;5059170;28;20968;-90
2022/06/25 07:39:02;;;;;;;58.87;2.80;;;;;;;;;;5057345;28;20446;-92
2022/06/25 07:41:30;;;;;;;59.13;3.10;;;;;;;;;;5060691;28;20493;-92
2022/06/25 07:43:57;;;;;;;58.70;3.00;;;;;;;;;;5057644;28;20452;-91
2022/06/25 07:46:24;;;;;;;59.10;3.23;;;;;;;;;;5057936;28;20446;-90
2022/06/25 07:48:52;;;;;;;59.17;3.60;;;;;;;;;;5057503;28;20460;-92
2022/06/25 07:54:05;;;;;;;58.40;2.93;;;;;;;;;;5056664;28;20404;-90
2022/06/25 07:56:33;;;;;;;59.93;3.00;;;;;;;;;;5056354;28;20466;-92
2022/06/25 07:59:01;;;;;;;59.40;3.10;;;;;;;;;;5055291;28;20493;-91
2022/06/25 08:01:28;;;;;;;58.73;2.67;;;;;;;;;;5054771;28;20491;-89
2022/06/25 08:03:55;;;;;;;59.00;2.93;;;;;;;;;;5055290;28;20464;-90
2022/06/25 08:06:23;;;;;;;59.83;3.33;;;;;;;;;;5054874;28;20436;-89
2022/06/25 08:08:50;;;;;;;58.60;2.70;;;;;;;;;;5054493;28;20452;-89
2022/06/25 08:11:19;;;;;;;59.00;2.90;;;;;;;;;;5054925;28;20480;-86
2022/06/25 08:13:46;;;;;;;58.60;2.83;;;;;;;;;;5054736;28;20441;-87
2022/06/25 08:16:38;;;;;;;58.93;2.90;;;;;;;;;;5054877;28;20456;-87
2022/06/25 08:19:06;;;;;;;58.97;2.80;;;;;;;;;;5054579;28;20425;-85
2022/06/25 08:21:36;;;;;;;63.67;3.00;;;;;;;;;;5054174;28;20480;-86
2022/06/25 08:24:03;;;;;;;58.97;2.97;;;;;;;;;;5053493;28;20452;-87
2022/06/25 08:26:32;;;;;;;59.33;3.50;;;;;;;;;;5054228;28;20436;-86
2022/06/25 08:28:59;;;;;;;58.47;2.87;;;;;;;;;;5054479;28;20437;-89
2022/06/25 08:31:28;;;;;;;59.00;3.10;;;;;;;;;;5054520;28;20473;-90
2022/06/25 08:33:55;;;;;;;58.80;3.00;;;;;;;;;;5054955;28;20448;-89
2022/06/25 08:36:23;;;;;;;58.70;2.77;;;;;;;;;;5054466;28;20567;-88
2022/06/25 08:38:51;;;;;;;58.47;2.83;;;;;;;;;;5053796;28;20535;-89
2022/06/25 08:41:19;;;;;;;58.87;3.30;;;;;;;;;;5053686;28;20507;-89
2022/06/25 08:43:48;;;;;;;59.40;3.03;;;;;;;;;;5053760;28;20441;-87
2022/06/25 08:46:16;;;;;;;58.77;2.87;;;;;;;;;;5053993;28;20448;-89
2022/06/25 08:48:44;;;;;;;59.57;3.17;;;;;;;;;;5053618;28;20966;-87
2022/06/25 08:51:12;;;;;;;58.33;2.73;;;;;;;;;;5053291;28;20456;-87
2022/06/25 08:53:39;;;;;;;59.67;2.93;;;;;;;;;;5053843;28;20472;-87
2022/06/25 08:56:08;;;;;;;59.17;2.80;;;;;;;;;;5052219;28;20445;-88
2022/06/25 08:58:37;;;;;;;58.63;2.80;;;;;;;;;;5053584;28;20471;-88
2022/06/25 09:01:05;;;;;;;58.67;3.10;;;;;;;;;;5053370;28;20476;-87
2022/06/25 09:03:33;;;;;;;59.17;3.10;;;;;;;;;;5053433;28;20505;-89
2022/06/25 09:06:13;;;;;;;58.90;2.97;;;;;;;;;;5053446;28;20780;-88
2022/06/25 09:08:40;;;;;;;58.77;2.90;;;;;;;;;;5053301;28;20455;-84
2022/06/25 09:11:08;;;;;;;59.13;3.50;;;;;;;;;;5053366;28;20825;-87
2022/06/25 09:13:35;;;;;;;59.00;2.90;;;;;;;;;;5053258;28;20445;-87
2022/06/25 09:16:02;;;;;;;59.00;3.20;;;;;;;;;;5055274;28;20435;-87
2022/06/25 09:18:33;;;;;;;58.80;2.70;;;;;;;;;;5056420;28;20796;-88
2022/06/25 09:21:01;;;;;;;58.40;3.20;;;;;;;;;;5052985;28;20490;-88
2022/06/25 09:23:29;;;;;;;59.27;2.87;;;;;;;;;;5053354;28;20464;-89
2022/06/25 09:26:04;;;;;;;59.93;3.57;;;;;;;;;;5053338;28;20436;-90
2022/06/25 09:28:32;;;;;;;58.37;2.80;;;;;;;;;;5052568;28;20514;-88
2022/06/25 09:30:59;;;;;;;58.30;3.00;;;;;;;;;;5053175;28;20478;-89
2022/06/25 09:33:27;;;;;;;58.50;2.90;;;;;;;;;;5053889;28;20457;-89
2022/06/25 09:35:55;;;;;;;59.83;3.60;;;;;;;;;;5053372;28;20445;-89
2022/06/25 09:38:24;;;;;;;58.80;2.70;;;;;;;;;;5052916;28;20445;-90
2022/06/25 09:40:52;;;;;;;58.60;3.30;;;;;;;;;;5053105;28;20480;-92
2022/06/25 09:43:20;;;;;;;58.60;2.70;;;;;;;;;;5053451;28;20442;-90
2022/06/25 09:45:49;;;;;;;58.80;2.60;;;;;;;;;;5053457;28;20459;-90
2022/06/25 09:48:20;;;;;;;59.20;3.03;;;;;;;;;;5053450;28;20442;-91
2022/06/25 09:51:09;;;;;;;58.77;3.10;;;;;;;;;;5054694;28;20894;-91
2022/06/25 09:53:37;;;;;;;60.20;3.47;;;;;;;;;;5053722;28;20454;-90
2022/06/25 09:56:13;;;;;;;59.17;2.60;;;;;;;;;;5055632;28;20503;-88
2022/06/25 09:58:41;;;;;;;58.60;2.63;;;;;;;;;;5053908;28;20443;-87
2022/06/25 10:01:08;;;;;;;59.27;2.90;;;;;;;;;;5053924;28;20491;-90
2022/06/25 10:03:38;;;;;;;58.13;2.30;;;;;;;;;;5052974;28;20453;-88
2022/06/25 10:06:10;;;;;;;60.20;2.90;;;;;;;;;;5053392;28;20487;-89
2022/06/25 10:08:38;;;;;;;60.10;2.77;;;;;;;;;;5053269;28;20438;-88
2022/06/25 10:11:06;;;;;;;59.63;2.70;;;;;;;;;;5056523;28;20464;-88
2022/06/25 10:13:33;;;;;;;59.27;2.73;;;;;;;;;;5061684;28;20466;-89
2022/06/25 10:16:01;;;;;;;59.07;2.47;;;;;;;;;;5054182;28;20497;-88
2022/06/25 10:18:29;;;;;;;58.63;2.47;;;;;;;;;;5053087;28;20424;-90
2022/06/25 10:20:57;;;;;;;58.87;2.77;;;;;;;;;;5053116;28;20491;-88
2022/06/25 10:23:27;;;;;;;58.37;2.70;;;;;;;;;;5053309;28;20437;-83
2022/06/25 10:25:55;;;;;;;58.70;2.60;;;;;;;;;;5053592;28;20770;-88
2022/06/25 10:28:26;;;;;;;58.30;2.67;;;;;;;;;;5053000;28;20480;-91
2022/06/25 10:30:56;;;;;;;58.07;2.30;;;;;;;;;;5052012;28;20487;-89
2022/06/25 10:33:24;;;;;;;57.87;2.40;;;;;;;;;;5053050;28;20873;-86
2022/06/25 10:35:52;;;;;;;58.13;2.63;;;;;;;;;;5052619;28;20443;-89
2022/06/25 10:38:21;;;;;;;58.50;2.80;;;;;;;;;;5052300;28;20475;-88
2022/06/25 10:40:57;;;;;;;59.73;2.27;;;;;;;;;;5053113;28;20463;-86
2022/06/25 10:43:40;;;;;;;57.67;2.30;;;;;;;;;;5053630;28;21194;-88
2022/06/25 10:46:29;;;;;;;59.37;2.53;;;;;;;;;;5052992;28;20436;-89
2022/06/25 10:48:58;;;;;;;58.67;2.67;;;;;;;;;;5052744;28;20872;-87
2022/06/25 10:51:29;;;;;;;57.70;2.30;;;;;;;;;;5052469;28;20866;-90
2022/06/25 10:53:57;;;;;;;57.87;2.50;;;;;;;;;;5052803;28;20467;-90
2022/06/25 10:56:25;;;;;;;57.70;2.10;;;;;;;;;;5052771;28;20989;-89
2022/06/25 10:58:53;;;;;;;62.03;2.37;;;;;;;;;;5052797;28;20445;-88
2022/06/25 11:01:22;;;;;;;59.50;2.63;;;;;;;;;;5051298;28;21001;-88
2022/06/25 11:03:52;;;;;;;57.60;2.03;;;;;;;;;;5052343;28;20506;-87
2022/06/25 11:06:21;;;;;;;57.70;2.40;;;;;;;;;;5052663;28;20485;-89
2022/06/25 11:08:51;;;;;;;58.00;2.50;;;;;;;;;;5052795;28;20581;-84
2022/06/25 11:11:27;;;;;;;57.50;2.20;;;;;;;;;;5052234;28;20539;-88
2022/06/25 11:13:54;;;;;;;57.50;2.30;;;;;;;;;;5052503;28;20439;-89
2022/06/25 11:16:22;;;;;;;57.57;2.57;;;;;;;;;;5056291;28;20460;-90
2022/06/25 11:18:50;;;;;;;58.10;2.10;;;;;;;;;;5056045;28;20531;-87
2022/06/25 11:21:27;;;;;;;57.70;2.30;;;;;;;;;;5055911;28;20975;-85
2022/06/25 11:24:05;;;;;;;58.47;2.63;;;;;;;;;;5055943;28;20523;-86
2022/06/25 11:29:23;;;;;;;58.30;2.50;;;;;;;;;;5055244;28;20408;-85
2022/06/25 11:31:51;;;;;;;57.50;2.43;;;;;;;;;;5055555;28;20523;-85
2022/06/25 11:34:19;;;;;;;61.47;2.20;;;;;;;;;;5053935;28;20552;-87
2022/06/25 11:36:46;;;;;;;58.20;2.47;;;;;;;;;;5055822;28;20445;-85
2022/06/25 11:39:16;;;;;;;57.47;2.40;;;;;;;;;;5054770;28;20452;-85
2022/06/25 11:41:50;;;;;;;57.57;2.17;;;;;;;;;;5054920;28;20578;-84
2022/06/25 11:44:18;;;;;;;60.70;2.30;;;;;;;;;;5055154;28;20418;-86
2022/06/25 11:46:45;;;;;;;57.70;2.30;;;;;;;;;;5054758;28;20472;-85
2022/06/25 11:49:16;;;;;;;56.67;1.80;;;;;;;;;;5054576;28;20487;-86
2022/06/25 11:51:46;;;;;;;57.57;2.40;;;;;;;;;;5054693;28;20479;-86
2022/06/25 11:54:14;;;;;;;56.97;2.10;;;;;;;;;;5054887;28;20859;-85
2022/06/25 11:56:50;;;;;;;57.00;2.00;;;;;;;;;;5054737;28;20440;-88
2022/06/25 11:59:23;;;;;;;57.50;2.10;;;;;;;;;;5054327;28;20513;-86
2022/06/25 12:01:51;;;;;;;59.83;1.90;;;;;;;;;;5054606;28;20541;-86
2022/06/25 12:04:18;;;;;;;56.57;1.93;;;;;;;;;;5052654;28;20511;-86
2022/06/25 12:06:50;;;;;;;57.60;2.30;;;;;;;;;;5054514;28;20437;-87
2022/06/25 12:09:18;;;;;;;57.23;2.30;;;;;;;;;;5054190;28;20978;-87
2022/06/25 12:11:52;;;;;;;56.93;2.13;;;;;;;;;;5054365;28;20840;-86
2022/06/25 12:14:25;;;;;;;57.90;2.30;;;;;;;;;;5054621;28;20463;-86
2022/06/25 12:16:55;;;;;;;57.50;2.30;;;;;;;;;;5054780;28;20444;-85
2022/06/25 12:19:23;;;;;;;56.87;1.90;;;;;;;;;;5054468;28;20452;-85
2022/06/25 12:21:50;;;;;;;57.00;2.20;;;;;;;;;;5055001;28;20488;-89
2022/06/25 12:24:19;;;;;;;56.67;1.80;;;;;;;;;;5054949;28;20432;-89
2022/06/25 12:26:55;;;;;;;57.00;2.10;;;;;;;;;;5062219;28;20432;-88
2022/06/25 12:29:31;;;;;;;57.50;1.90;;;;;;;;;;5069854;28;20448;-88
2022/06/25 12:31:59;;;;;;;57.00;2.17;;;;;;;;;;5061062;28;20460;-89
2022/06/25 12:34:27;;;;;;;64.50;2.67;;;;;;;;;;5062018;28;20438;-92
2022/06/25 12:36:56;;;;;;;57.40;2.30;;;;;;;;;;5054928;28;20456;-92
2022/06/25 12:39:32;;;;;;;57.80;2.43;;;;;;;;;;5055134;28;20436;-93
2022/06/25 12:42:03;;;;;;;59.30;2.07;;;;;;;;;;5055384;28;20464;-92
2022/06/25 12:44:34;;;;;;;57.20;2.10;;;;;;;;;;5054505;28;20519;-85
2022/06/25 12:47:05;;;;;;;57.00;2.17;;;;;;;;;;5054756;28;20460;-89
2022/06/25 12:49:45;;;;;;;56.80;1.90;;;;;;;;;;5054084;28;20448;-89
2022/06/25 12:52:14;;;;;;;57.00;2.00;;;;;;;;;;5054210;28;21002;-86
2022/06/25 12:54:43;;;;;;;57.50;2.30;;;;;;;;;;5053919;28;20437;-91
2022/06/25 12:57:11;;;;;;;58.00;2.23;;;;;;;;;;5054130;28;20494;-90
2022/06/25 12:59:45;;;;;;;57.00;1.90;;;;;;;;;;5054072;28;20437;-89
2022/06/25 13:02:13;;;;;;;57.33;2.30;;;;;;;;;;5054820;28;20502;-89
2022/06/25 13:04:41;;;;;;;57.07;2.03;;;;;;;;;;5053827;28;20490;-88
2022/06/25 13:07:08;;;;;;;56.77;2.00;;;;;;;;;;5053722;28;20459;-88
2022/06/25 13:09:36;;;;;;;56.93;2.10;;;;;;;;;;5052904;28;20456;-89
2022/06/25 13:12:03;;;;;;;56.73;2.27;;;;;;;;;;5053740;28;20487;-85
2022/06/25 13:14:30;;;;;;;57.70;2.37;;;;;;;;;;5053654;28;21069;-85
2022/06/25 13:16:59;;;;;;;58.50;2.30;;;;;;;;;;5053422;28;20538;-87
2022/06/25 13:19:26;;;;;;;56.83;1.83;;;;;;;;;;5053007;28;20441;-85
2022/06/25 13:21:54;;;;;;;56.67;1.90;;;;;;;;;;5053041;28;20461;-84
2022/06/25 13:24:21;;;;;;;57.10;2.10;;;;;;;;;;5053617;28;20963;-87
2022/06/25 13:26:49;;;;;;;56.90;2.20;;;;;;;;;;5054221;28;20832;-89
2022/06/25 13:29:16;;;;;;;57.40;2.50;;;;;;;;;;5054753;28;20518;-84
2022/06/25 13:31:43;;;;;;;56.90;2.03;;;;;;;;;;5053334;28;20472;-84
2022/06/25 13:34:12;;;;;;;57.30;2.57;;;;;;;;;;5053001;28;20440;-84
2022/06/25 13:36:39;;;;;;;56.80;2.10;;;;;;;;;;5052756;28;20416;-86
2022/06/25 13:39:07;;;;;;;57.40;2.20;;;;;;;;;;5052491;28;20994;-84
2022/06/25 13:41:36;;;;;;;57.00;2.10;;;;;;;;;;5052738;28;20452;-83
2022/06/25 13:44:04;;;;;;;57.83;2.17;;;;;;;;;;5052676;28;20875;-86
2022/06/25 13:46:31;;;;;;;58.67;2.30;;;;;;;;;;5052888;28;20433;-87
2022/06/25 13:48:59;;;;;;;60.00;2.27;;;;;;;;;;5053144;28;20459;-85
2022/06/25 13:51:27;;;;;;;57.47;2.23;;;;;;;;;;5052871;28;20483;-88
2022/06/25 13:53:55;;;;;;;58.17;2.13;;;;;;;;;;5054053;28;20487;-87
2022/06/25 13:56:22;;;;;;;59.60;2.17;;;;;;;;;;5053132;28;21363;-85
2022/06/25 13:58:50;;;;;;;59.17;2.37;;;;;;;;;;5052279;28;20518;-84
2022/06/25 14:01:17;;;;;;;57.47;1.90;;;;;;;;;;5052462;28;20543;-85
2022/06/25 14:03:44;;;;;;;57.40;2.23;;;;;;;;;;5052448;28;20502;-84
2022/06/25 14:06:11;;;;;;;58.50;2.17;;;;;;;;;;5052387;28;20457;-85
2022/06/25 14:08:40;;;;;;;57.77;2.10;;;;;;;;;;5052292;28;20931;-85
2022/06/25 14:11:08;;;;;;;57.03;2.00;;;;;;;;;;5052082;28;20484;-85
2022/06/25 14:13:35;;;;;;;58.00;2.03;;;;;;;;;;5052242;28;20834;-85
2022/06/25 14:16:02;;;;;;;58.07;2.30;;;;;;;;;;5052019;28;20440;-85
2022/06/25 14:18:32;;;;;;;56.97;1.83;;;;;;;;;;5052065;28;20819;-86
2022/06/25 14:21:02;;;;;;;56.90;2.03;;;;;;;;;;5051886;28;20505;-85
2022/06/25 14:23:30;;;;;;;57.07;2.27;;;;;;;;;;5051149;28;20528;-85
2022/06/25 14:25:59;;;;;;;57.40;2.10;;;;;;;;;;5051963;28;20935;-85
2022/06/25 14:28:26;;;;;;;57.40;2.30;;;;;;;;;;5052337;28;20444;-84
2022/06/25 14:30:54;;;;;;;59.00;2.37;;;;;;;;;;5052113;28;20494;-85
2022/06/25 14:33:23;;;;;;;57.10;2.20;;;;;;;;;;5054113;28;20471;-84
2022/06/25 14:44:18;;;;;;;57.00;1.90;;;;;;;;;;5010341;28;20444;-84
2022/06/25 14:46:45;;;;;;;57.67;2.10;;;;;;;;;;5041930;28;20449;-85
2022/06/25 14:49:13;;;;;;;57.07;1.90;;;;;;;;;;5053140;28;20432;-84
2022/06/25 14:51:40;;;;;;;56.93;2.03;;;;;;;;;;5065057;28;21051;-86
2022/06/25 14:54:07;;;;;;;56.97;2.07;;;;;;;;;;5056049;28;20553;-86
2022/06/25 14:56:36;;;;;;;57.87;2.07;;;;;;;;;;5055854;28;20462;-83